sensor_id;sensor_type;location;lat;lon;timestamp;temperature;humidity
25024;DHT22;13033;50.936;5.334;2023-02-15T00:01:21;5.30;99.90
25024;DHT22;13033;50.936;5.334;2023-02-15T00:03:50;5.30;99.90
25024;DHT22;13033;50.936;5.334;2023-02-15T00:06:16;5.20;99.90
25024;DHT22;13033;50.936;5.334;2023-02-15T00:08:42;5.30;99.90
25024;DHT22;13033;50.936;5.334;2023-02-15T00:11:12;5.10;99.90
25024;DHT22;13033;50.936;5.334;2023-02-15T00:13:39;5.10;99.90
25024;DHT22;13033;50.936;5.334;2023-02-15T00:16:10;5.10;99.90
25024;DHT22;13033;50.936;5.334;2023-02-15T00:18:36;5.20;99.90
25024;DHT22;13033;50.936;5.334;2023-02-15T00:21:07;5.00;99.90
25024;DHT22;13033;50.936;5.334;2023-02-15T00:23:34;4.90;99.90
25024;DHT22;13033;50.936;5.334;2023-02-15T00:26:09;5.00;99.90
25024;DHT22;13033;50.936;5.334;2023-02-15T00:28:35;4.80;99.90
25024;DHT22;13033;50.936;5.334;2023-02-15T00:31:11;4.80;99.90
25024;DHT22;13033;50.936;5.334;2023-02-15T00:33:38;4.90;99.90
25024;DHT22;13033;50.936;5.334;2023-02-15T00:36:05;4.70;99.90
25024;DHT22;13033;50.936;5.334;2023-02-15T00:38:32;4.70;99.90
25024;DHT22;13033;50.936;5.334;2023-02-15T00:40:59;4.60;99.90
25024;DHT22;13033;50.936;5.334;2023-02-15T00:43:26;4.60;99.90
25024;DHT22;13033;50.936;5.334;2023-02-15T00:45:52;4.70;99.90
25024;DHT22;13033;50.936;5.334;2023-02-15T00:48:19;4.70;99.90
25024;DHT22;13033;50.936;5.334;2023-02-15T00:50:56;4.50;99.90
25024;DHT22;13033;50.936;5.334;2023-02-15T00:53:22;4.60;99.90
25024;DHT22;13033;50.936;5.334;2023-02-15T00:55:48;4.60;99.90
25024;DHT22;13033;50.936;5.334;2023-02-15T00:58:15;4.50;99.90
25024;DHT22;13033;50.936;5.334;2023-02-15T01:00:43;4.50;99.90
25024;DHT22;13033;50.936;5.334;2023-02-15T01:03:10;4.50;99.90
25024;DHT22;13033;50.936;5.334;2023-02-15T01:05:36;4.60;99.90
25024;DHT22;13033;50.936;5.334;2023-02-15T01:08:02;4.60;99.90
25024;DHT22;13033;50.936;5.334;2023-02-15T01:10:28;4.40;99.90
25024;DHT22;13033;50.936;5.334;2023-02-15T01:12:55;4.40;99.90
25024;DHT22;13033;50.936;5.334;2023-02-15T01:15:22;4.40;99.90
25024;DHT22;13033;50.936;5.334;2023-02-15T01:17:48;4.40;99.90
25024;DHT22;13033;50.936;5.334;2023-02-15T01:20:19;4.50;99.90
25024;DHT22;13033;50.936;5.334;2023-02-15T01:22:46;4.60;99.90
25024;DHT22;13033;50.936;5.334;2023-02-15T01:25:12;4.40;99.90
25024;DHT22;13033;50.936;5.334;2023-02-15T01:27:38;4.30;99.90
25024;DHT22;13033;50.936;5.334;2023-02-15T01:30:03;4.30;99.90
25024;DHT22;13033;50.936;5.334;2023-02-15T01:32:30;4.50;99.90
25024;DHT22;13033;50.936;5.334;2023-02-15T01:34:56;4.50;99.90
25024;DHT22;13033;50.936;5.334;2023-02-15T01:37:22;4.40;99.90
25024;DHT22;13033;50.936;5.334;2023-02-15T01:39:47;4.30;99.90
25024;DHT22;13033;50.936;5.334;2023-02-15T01:42:13;4.30;99.90
25024;DHT22;13033;50.936;5.334;2023-02-15T01:44:53;4.30;99.90
25024;DHT22;13033;50.936;5.334;2023-02-15T01:50:36;4.20;99.90
25024;DHT22;13033;50.936;5.334;2023-02-15T01:55:33;4.10;99.90
25024;DHT22;13033;50.936;5.334;2023-02-15T01:58:00;4.10;99.90
25024;DHT22;13033;50.936;5.334;2023-02-15T02:00:26;4.10;99.90
25024;DHT22;13033;50.936;5.334;2023-02-15T02:02:54;4.10;99.90
25024;DHT22;13033;50.936;5.334;2023-02-15T02:05:20;4.10;99.90
25024;DHT22;13033;50.936;5.334;2023-02-15T02:07:46;4.10;99.90
25024;DHT22;13033;50.936;5.334;2023-02-15T02:12:43;4.20;99.90
25024;DHT22;13033;50.936;5.334;2023-02-15T02:15:11;4.30;99.90
25024;DHT22;13033;50.936;5.334;2023-02-15T02:20:25;4.30;99.90
25024;DHT22;13033;50.936;5.334;2023-02-15T02:34:53;4.30;99.90
25024;DHT22;13033;50.936;5.334;2023-02-15T02:42:43;4.20;99.90
25024;DHT22;13033;50.936;5.334;2023-02-15T02:45:34;4.10;99.90
25024;DHT22;13033;50.936;5.334;2023-02-15T02:48:09;3.90;99.90
25024;DHT22;13033;50.936;5.334;2023-02-15T02:50:39;3.90;99.90
25024;DHT22;13033;50.936;5.334;2023-02-15T02:53:05;4.20;99.90
25024;DHT22;13033;50.936;5.334;2023-02-15T03:01:09;4.00;99.90
25024;DHT22;13033;50.936;5.334;2023-02-15T03:03:45;4.00;99.90
25024;DHT22;13033;50.936;5.334;2023-02-15T03:06:35;3.90;99.90
25024;DHT22;13033;50.936;5.334;2023-02-15T03:09:15;3.90;99.90
25024;DHT22;13033;50.936;5.334;2023-02-15T03:11:46;3.90;99.90
25024;DHT22;13033;50.936;5.334;2023-02-15T03:14:14;3.80;99.90
25024;DHT22;13033;50.936;5.334;2023-02-15T03:16:43;3.60;99.90
25024;DHT22;13033;50.936;5.334;2023-02-15T03:19:23;3.70;99.90
25024;DHT22;13033;50.936;5.334;2023-02-15T03:21:53;3.80;99.90
25024;DHT22;13033;50.936;5.334;2023-02-15T03:24:43;3.70;99.90
25024;DHT22;13033;50.936;5.334;2023-02-15T03:27:18;3.60;99.90
25024;DHT22;13033;50.936;5.334;2023-02-15T03:29:52;3.70;99.90
25024;DHT22;13033;50.936;5.334;2023-02-15T03:32:19;4.00;99.90
25024;DHT22;13033;50.936;5.334;2023-02-15T03:34:45;3.80;99.90
25024;DHT22;13033;50.936;5.334;2023-02-15T03:39:59;3.70;99.90
25024;DHT22;13033;50.936;5.334;2023-02-15T03:42:48;3.60;99.90
25024;DHT22;13033;50.936;5.334;2023-02-15T03:45:20;3.60;99.90
25024;DHT22;13033;50.936;5.334;2023-02-15T03:47:50;3.70;99.90
25024;DHT22;13033;50.936;5.334;2023-02-15T03:50:18;4.10;99.90
25024;DHT22;13033;50.936;5.334;2023-02-15T03:53:06;4.10;99.90
25024;DHT22;13033;50.936;5.334;2023-02-15T03:55:34;4.00;99.90
25024;DHT22;13033;50.936;5.334;2023-02-15T03:58:00;4.00;99.90
25024;DHT22;13033;50.936;5.334;2023-02-15T04:00:59;4.00;99.90
25024;DHT22;13033;50.936;5.334;2023-02-15T04:04:10;4.20;99.90
25024;DHT22;13033;50.936;5.334;2023-02-15T04:06:33;4.10;99.90
25024;DHT22;13033;50.936;5.334;2023-02-15T04:08:59;3.90;99.90
25024;DHT22;13033;50.936;5.334;2023-02-15T04:11:43;3.90;99.90
25024;DHT22;13033;50.936;5.334;2023-02-15T04:14:09;3.80;99.90
25024;DHT22;13033;50.936;5.334;2023-02-15T04:16:53;3.80;99.90
25024;DHT22;13033;50.936;5.334;2023-02-15T04:19:18;3.70;99.90
25024;DHT22;13033;50.936;5.334;2023-02-15T04:22:02;3.70;99.90
25024;DHT22;13033;50.936;5.334;2023-02-15T04:24:47;3.70;99.90
25024;DHT22;13033;50.936;5.334;2023-02-15T04:27:31;3.70;99.90
25024;DHT22;13033;50.936;5.334;2023-02-15T04:29:56;3.60;99.90
25024;DHT22;13033;50.936;5.334;2023-02-15T04:32:22;3.70;99.90
25024;DHT22;13033;50.936;5.334;2023-02-15T04:34:47;3.60;99.90
25024;DHT22;13033;50.936;5.334;2023-02-15T04:37:13;3.70;99.90
25024;DHT22;13033;50.936;5.334;2023-02-15T04:39:39;3.70;99.90
25024;DHT22;13033;50.936;5.334;2023-02-15T04:42:04;3.70;99.90
25024;DHT22;13033;50.936;5.334;2023-02-15T04:44:30;3.60;99.90
25024;DHT22;13033;50.936;5.334;2023-02-15T04:46:55;3.50;99.90
25024;DHT22;13033;50.936;5.334;2023-02-15T04:49:21;3.50;99.90
25024;DHT22;13033;50.936;5.334;2023-02-15T04:51:47;3.50;99.90
25024;DHT22;13033;50.936;5.334;2023-02-15T04:54:12;3.60;99.90
25024;DHT22;13033;50.936;5.334;2023-02-15T04:56:38;3.60;99.90
25024;DHT22;13033;50.936;5.334;2023-02-15T04:59:05;3.50;99.90
25024;DHT22;13033;50.936;5.334;2023-02-15T05:01:31;3.50;99.90
25024;DHT22;13033;50.936;5.334;2023-02-15T05:03:57;3.50;99.90
25024;DHT22;13033;50.936;5.334;2023-02-15T05:06:22;3.60;99.90
25024;DHT22;13033;50.936;5.334;2023-02-15T05:08:48;3.50;99.90
25024;DHT22;13033;50.936;5.334;2023-02-15T05:11:14;3.50;99.90
25024;DHT22;13033;50.936;5.334;2023-02-15T05:13:39;3.50;99.90
25024;DHT22;13033;50.936;5.334;2023-02-15T05:16:05;3.40;99.90
25024;DHT22;13033;50.936;5.334;2023-02-15T05:18:30;3.30;99.90
25024;DHT22;13033;50.936;5.334;2023-02-15T05:20:56;3.30;99.90
25024;DHT22;13033;50.936;5.334;2023-02-15T05:23:22;3.20;99.90
25024;DHT22;13033;50.936;5.334;2023-02-15T05:25:49;3.20;99.90
25024;DHT22;13033;50.936;5.334;2023-02-15T05:28:34;3.20;99.90
25024;DHT22;13033;50.936;5.334;2023-02-15T05:33:28;3.20;99.90
25024;DHT22;13033;50.936;5.334;2023-02-15T05:35:53;3.20;99.90
25024;DHT22;13033;50.936;5.334;2023-02-15T05:38:19;3.10;99.90
25024;DHT22;13033;50.936;5.334;2023-02-15T05:40:44;3.20;99.90
25024;DHT22;13033;50.936;5.334;2023-02-15T05:43:10;3.10;99.90
25024;DHT22;13033;50.936;5.334;2023-02-15T05:45:36;3.10;99.90
25024;DHT22;13033;50.936;5.334;2023-02-15T05:48:01;3.20;99.90
25024;DHT22;13033;50.936;5.334;2023-02-15T05:50:27;3.10;99.90
25024;DHT22;13033;50.936;5.334;2023-02-15T05:52:53;3.10;99.90
25024;DHT22;13033;50.936;5.334;2023-02-15T05:55:19;3.30;99.90
25024;DHT22;13033;50.936;5.334;2023-02-15T05:57:44;3.30;99.90
25024;DHT22;13033;50.936;5.334;2023-02-15T06:00:11;3.40;99.90
25024;DHT22;13033;50.936;5.334;2023-02-15T06:02:38;3.40;99.90
25024;DHT22;13033;50.936;5.334;2023-02-15T06:05:04;3.30;99.90
25024;DHT22;13033;50.936;5.334;2023-02-15T06:07:30;3.30;99.90
25024;DHT22;13033;50.936;5.334;2023-02-15T06:09:56;3.20;99.90
25024;DHT22;13033;50.936;5.334;2023-02-15T06:12:21;3.20;99.90
25024;DHT22;13033;50.936;5.334;2023-02-15T06:14:47;3.20;99.90
25024;DHT22;13033;50.936;5.334;2023-02-15T06:17:13;3.30;99.90
25024;DHT22;13033;50.936;5.334;2023-02-15T06:19:39;3.40;99.90
25024;DHT22;13033;50.936;5.334;2023-02-15T06:22:04;3.30;99.90
25024;DHT22;13033;50.936;5.334;2023-02-15T06:24:31;3.40;99.90
25024;DHT22;13033;50.936;5.334;2023-02-15T06:26:57;3.40;99.90
25024;DHT22;13033;50.936;5.334;2023-02-15T06:29:23;3.40;99.90
25024;DHT22;13033;50.936;5.334;2023-02-15T06:31:49;3.50;99.90
25024;DHT22;13033;50.936;5.334;2023-02-15T06:34:15;3.60;99.90
25024;DHT22;13033;50.936;5.334;2023-02-15T06:36:40;3.60;99.90
25024;DHT22;13033;50.936;5.334;2023-02-15T06:39:06;3.50;99.90
25024;DHT22;13033;50.936;5.334;2023-02-15T06:41:32;3.40;99.90
25024;DHT22;13033;50.936;5.334;2023-02-15T06:43:58;3.50;99.90
25024;DHT22;13033;50.936;5.334;2023-02-15T06:46:23;3.40;99.90
25024;DHT22;13033;50.936;5.334;2023-02-15T06:48:49;3.40;99.90
25024;DHT22;13033;50.936;5.334;2023-02-15T06:51:15;3.40;99.90
25024;DHT22;13033;50.936;5.334;2023-02-15T06:53:40;3.40;99.90
25024;DHT22;13033;50.936;5.334;2023-02-15T06:56:08;3.30;99.90
25024;DHT22;13033;50.936;5.334;2023-02-15T06:58:40;3.30;99.90
25024;DHT22;13033;50.936;5.334;2023-02-15T07:01:07;3.30;99.90
25024;DHT22;13033;50.936;5.334;2023-02-15T07:03:34;3.30;99.90
25024;DHT22;13033;50.936;5.334;2023-02-15T07:06:02;3.30;99.90
25024;DHT22;13033;50.936;5.334;2023-02-15T07:08:28;3.30;99.90
25024;DHT22;13033;50.936;5.334;2023-02-15T07:10:55;3.40;99.90
25024;DHT22;13033;50.936;5.334;2023-02-15T07:13:41;3.50;99.90
25024;DHT22;13033;50.936;5.334;2023-02-15T07:16:08;3.70;99.90
25024;DHT22;13033;50.936;5.334;2023-02-15T07:18:34;3.80;99.90
25024;DHT22;13033;50.936;5.334;2023-02-15T07:21:06;3.90;99.90
25024;DHT22;13033;50.936;5.334;2023-02-15T07:23:36;3.90;99.90
25024;DHT22;13033;50.936;5.334;2023-02-15T07:26:03;3.90;99.90
25024;DHT22;13033;50.936;5.334;2023-02-15T07:28:30;3.90;99.90
25024;DHT22;13033;50.936;5.334;2023-02-15T07:30:55;3.90;99.90
25024;DHT22;13033;50.936;5.334;2023-02-15T07:33:22;3.80;99.90
25024;DHT22;13033;50.936;5.334;2023-02-15T07:35:58;4.10;99.90
25024;DHT22;13033;50.936;5.334;2023-02-15T07:38:30;4.10;99.90
25024;DHT22;13033;50.936;5.334;2023-02-15T07:41:00;4.20;99.90
25024;DHT22;13033;50.936;5.334;2023-02-15T07:43:26;4.20;99.90
25024;DHT22;13033;50.936;5.334;2023-02-15T07:45:52;4.30;99.90
25024;DHT22;13033;50.936;5.334;2023-02-15T07:48:18;4.40;99.90
25024;DHT22;13033;50.936;5.334;2023-02-15T07:50:43;4.30;99.90
25024;DHT22;13033;50.936;5.334;2023-02-15T07:53:09;4.50;99.90
25024;DHT22;13033;50.936;5.334;2023-02-15T07:55:34;4.60;99.90
25024;DHT22;13033;50.936;5.334;2023-02-15T07:58:00;4.70;99.90
25024;DHT22;13033;50.936;5.334;2023-02-15T08:00:26;4.80;99.90
25024;DHT22;13033;50.936;5.334;2023-02-15T08:02:54;5.00;99.90
25024;DHT22;13033;50.936;5.334;2023-02-15T08:05:43;5.00;99.90
25024;DHT22;13033;50.936;5.334;2023-02-15T08:08:10;5.20;99.90
25024;DHT22;13033;50.936;5.334;2023-02-15T08:16:25;5.30;99.90
25024;DHT22;13033;50.936;5.334;2023-02-15T08:18:52;5.40;99.90
25024;DHT22;13033;50.936;5.334;2023-02-15T08:21:19;5.60;99.90
25024;DHT22;13033;50.936;5.334;2023-02-15T08:23:45;5.50;99.90
25024;DHT22;13033;50.936;5.334;2023-02-15T08:26:11;5.50;99.90
25024;DHT22;13033;50.936;5.334;2023-02-15T08:28:42;5.60;99.90
25024;DHT22;13033;50.936;5.334;2023-02-15T08:31:10;5.60;99.90
25024;DHT22;13033;50.936;5.334;2023-02-15T08:33:37;5.60;99.90
25024;DHT22;13033;50.936;5.334;2023-02-15T08:36:05;5.80;99.90
25024;DHT22;13033;50.936;5.334;2023-02-15T08:38:31;5.80;99.90
25024;DHT22;13033;50.936;5.334;2023-02-15T08:40:58;5.80;99.90
25024;DHT22;13033;50.936;5.334;2023-02-15T08:43:33;5.90;99.90
25024;DHT22;13033;50.936;5.334;2023-02-15T08:45:59;5.90;99.90
25024;DHT22;13033;50.936;5.334;2023-02-15T08:48:25;6.00;99.90
25024;DHT22;13033;50.936;5.334;2023-02-15T08:50:50;6.10;99.90
25024;DHT22;13033;50.936;5.334;2023-02-15T08:53:16;6.40;99.90
25024;DHT22;13033;50.936;5.334;2023-02-15T08:55:45;6.60;99.90
25024;DHT22;13033;50.936;5.334;2023-02-15T08:58:11;6.80;99.90
25024;DHT22;13033;50.936;5.334;2023-02-15T09:00:38;6.90;99.90
25024;DHT22;13033;50.936;5.334;2023-02-15T09:03:03;7.00;99.90
25024;DHT22;13033;50.936;5.334;2023-02-15T09:05:29;7.00;99.90
25024;DHT22;13033;50.936;5.334;2023-02-15T09:07:54;7.10;99.90
25024;DHT22;13033;50.936;5.334;2023-02-15T09:10:20;7.20;99.90
25024;DHT22;13033;50.936;5.334;2023-02-15T09:12:46;7.20;99.90
25024;DHT22;13033;50.936;5.334;2023-02-15T09:15:11;7.20;99.90
25024;DHT22;13033;50.936;5.334;2023-02-15T09:17:37;7.30;99.90
25024;DHT22;13033;50.936;5.334;2023-02-15T09:20:03;7.40;99.90
25024;DHT22;13033;50.936;5.334;2023-02-15T09:22:28;7.50;99.90
25024;DHT22;13033;50.936;5.334;2023-02-15T09:24:56;7.60;99.90
25024;DHT22;13033;50.936;5.334;2023-02-15T09:27:22;7.80;99.90
25024;DHT22;13033;50.936;5.334;2023-02-15T09:29:47;7.90;99.90
25024;DHT22;13033;50.936;5.334;2023-02-15T09:32:16;7.90;99.90
25024;DHT22;13033;50.936;5.334;2023-02-15T09:34:42;8.20;99.90
25024;DHT22;13033;50.936;5.334;2023-02-15T09:37:08;8.40;99.90
25024;DHT22;13033;50.936;5.334;2023-02-15T09:39:34;8.70;99.90
25024;DHT22;13033;50.936;5.334;2023-02-15T09:42:09;8.80;99.90
25024;DHT22;13033;50.936;5.334;2023-02-15T09:50:36;9.50;99.90
25024;DHT22;13033;50.936;5.334;2023-02-15T09:58:28;10.10;99.90
25024;DHT22;13033;50.936;5.334;2023-02-15T10:06:42;10.30;99.90
25024;DHT22;13033;50.936;5.334;2023-02-15T10:15:21;10.80;99.90
25024;DHT22;13033;50.936;5.334;2023-02-15T10:18:20;10.90;99.90
25024;DHT22;13033;50.936;5.334;2023-02-15T10:23:41;10.90;99.90
25024;DHT22;13033;50.936;5.334;2023-02-15T10:29:29;10.90;99.90
25024;DHT22;13033;50.936;5.334;2023-02-15T10:34:51;11.20;99.90
25024;DHT22;13033;50.936;5.334;2023-02-15T10:46:21;11.40;99.90
25024;DHT22;13033;50.936;5.334;2023-02-15T10:49:25;11.70;99.90
25024;DHT22;13033;50.936;5.334;2023-02-15T10:55:11;12.00;99.90
25024;DHT22;13033;50.936;5.334;2023-02-15T11:00:46;12.40;99.90
25024;DHT22;13033;50.936;5.334;2023-02-15T11:06:09;12.40;99.90
25024;DHT22;13033;50.936;5.334;2023-02-15T11:08:42;12.40;99.90
25024;DHT22;13033;50.936;5.334;2023-02-15T11:11:31;12.40;99.90
25024;DHT22;13033;50.936;5.334;2023-02-15T11:14:31;12.50;99.90
25024;DHT22;13033;50.936;5.334;2023-02-15T11:17:06;12.70;99.90
25024;DHT22;13033;50.936;5.334;2023-02-15T11:19:51;12.60;99.90
25024;DHT22;13033;50.936;5.334;2023-02-15T11:22:18;12.60;99.90
25024;DHT22;13033;50.936;5.334;2023-02-15T11:24:45;12.70;99.90
25024;DHT22;13033;50.936;5.334;2023-02-15T11:27:30;12.90;99.90
25024;DHT22;13033;50.936;5.334;2023-02-15T11:32:35;12.80;99.90
25024;DHT22;13033;50.936;5.334;2023-02-15T11:35:10;12.70;99.90
25024;DHT22;13033;50.936;5.334;2023-02-15T11:37:51;12.70;99.90
25024;DHT22;13033;50.936;5.334;2023-02-15T11:40:27;12.70;99.90
25024;DHT22;13033;50.936;5.334;2023-02-15T11:43:00;12.80;99.90
25024;DHT22;13033;50.936;5.334;2023-02-15T11:45:32;13.00;99.90
25024;DHT22;13033;50.936;5.334;2023-02-15T11:47:59;13.10;99.90
25024;DHT22;13033;50.936;5.334;2023-02-15T11:50:31;13.10;99.90
25024;DHT22;13033;50.936;5.334;2023-02-15T11:53:04;13.20;99.90
25024;DHT22;13033;50.936;5.334;2023-02-15T11:55:31;13.40;99.90
25024;DHT22;13033;50.936;5.334;2023-02-15T12:00:50;13.60;99.90
25024;DHT22;13033;50.936;5.334;2023-02-15T12:03:22;13.60;99.90
25024;DHT22;13033;50.936;5.334;2023-02-15T12:06:04;13.80;99.90
25024;DHT22;13033;50.936;5.334;2023-02-15T12:08:44;13.60;99.90
25024;DHT22;13033;50.936;5.334;2023-02-15T12:11:21;13.50;99.90
25024;DHT22;13033;50.936;5.334;2023-02-15T12:14:04;13.70;99.90
25024;DHT22;13033;50.936;5.334;2023-02-15T12:16:44;13.70;99.90
25024;DHT22;13033;50.936;5.334;2023-02-15T12:19:31;13.70;99.90
25024;DHT22;13033;50.936;5.334;2023-02-15T12:21:59;13.80;99.90
25024;DHT22;13033;50.936;5.334;2023-02-15T12:24:29;13.80;99.90
25024;DHT22;13033;50.936;5.334;2023-02-15T12:27:13;14.00;99.90
25024;DHT22;13033;50.936;5.334;2023-02-15T12:29:46;14.10;99.90
25024;DHT22;13033;50.936;5.334;2023-02-15T12:32:28;14.30;99.90
25024;DHT22;13033;50.936;5.334;2023-02-15T12:35:00;14.10;99.90
25024;DHT22;13033;50.936;5.334;2023-02-15T12:37:29;14.00;99.90
25024;DHT22;13033;50.936;5.334;2023-02-15T12:40:10;13.90;99.90
25024;DHT22;13033;50.936;5.334;2023-02-15T12:42:44;13.90;99.90
25024;DHT22;13033;50.936;5.334;2023-02-15T12:45:31;14.10;99.90
25024;DHT22;13033;50.936;5.334;2023-02-15T12:48:17;14.10;99.90
25024;DHT22;13033;50.936;5.334;2023-02-15T12:50:48;14.30;99.90
25024;DHT22;13033;50.936;5.334;2023-02-15T12:53:22;14.30;99.90
25024;DHT22;13033;50.936;5.334;2023-02-15T12:55:59;14.20;99.90
25024;DHT22;13033;50.936;5.334;2023-02-15T12:58:29;14.20;99.90
25024;DHT22;13033;50.936;5.334;2023-02-15T13:01:12;14.20;99.90
25024;DHT22;13033;50.936;5.334;2023-02-15T13:06:23;14.40;99.90
25024;DHT22;13033;50.936;5.334;2023-02-15T13:08:58;14.30;99.90
25024;DHT22;13033;50.936;5.334;2023-02-15T13:11:31;14.30;99.90
25024;DHT22;13033;50.936;5.334;2023-02-15T13:14:16;14.50;99.90
25024;DHT22;13033;50.936;5.334;2023-02-15T13:16:44;14.70;99.90
25024;DHT22;13033;50.936;5.334;2023-02-15T13:21:53;14.60;99.90
25024;DHT22;13033;50.936;5.334;2023-02-15T13:24:36;14.50;99.90
25024;DHT22;13033;50.936;5.334;2023-02-15T13:27:03;14.40;99.90
25024;DHT22;13033;50.936;5.334;2023-02-15T13:29:33;14.30;99.90
25024;DHT22;13033;50.936;5.334;2023-02-15T13:32:06;14.20;99.90
25024;DHT22;13033;50.936;5.334;2023-02-15T13:34:37;14.30;99.90
25024;DHT22;13033;50.936;5.334;2023-02-15T13:37:17;14.50;99.90
25024;DHT22;13033;50.936;5.334;2023-02-15T13:39:58;14.80;99.90
25024;DHT22;13033;50.936;5.334;2023-02-15T13:42:49;14.60;99.90
25024;DHT22;13033;50.936;5.334;2023-02-15T13:45:36;14.70;99.90
25024;DHT22;13033;50.936;5.334;2023-02-15T13:48:22;14.80;99.90
25024;DHT22;13033;50.936;5.334;2023-02-15T13:51:07;14.80;99.90
25024;DHT22;13033;50.936;5.334;2023-02-15T13:53:47;14.80;99.90
25024;DHT22;13033;50.936;5.334;2023-02-15T14:10:38;14.70;99.90
25024;DHT22;13033;50.936;5.334;2023-02-15T14:13:32;14.90;99.90
25024;DHT22;13033;50.936;5.334;2023-02-15T14:16:05;14.90;99.90
25024;DHT22;13033;50.936;5.334;2023-02-15T14:18:48;15.00;99.90
25024;DHT22;13033;50.936;5.334;2023-02-15T14:21:32;15.30;99.90
25024;DHT22;13033;50.936;5.334;2023-02-15T14:26:54;15.20;99.90
25024;DHT22;13033;50.936;5.334;2023-02-15T14:32:11;15.10;99.90
25024;DHT22;13033;50.936;5.334;2023-02-15T14:34:48;15.10;99.90
25024;DHT22;13033;50.936;5.334;2023-02-15T14:37:22;15.10;99.90
25024;DHT22;13033;50.936;5.334;2023-02-15T14:40:08;15.20;99.90
25024;DHT22;13033;50.936;5.334;2023-02-15T14:43:00;15.20;99.90
25024;DHT22;13033;50.936;5.334;2023-02-15T14:45:48;14.80;99.90
25024;DHT22;13033;50.936;5.334;2023-02-15T14:54:09;14.50;99.90
25024;DHT22;13033;50.936;5.334;2023-02-15T14:56:35;14.50;99.90
25024;DHT22;13033;50.936;5.334;2023-02-15T14:59:21;14.60;99.90
25024;DHT22;13033;50.936;5.334;2023-02-15T15:01:58;14.60;99.90
25024;DHT22;13033;50.936;5.334;2023-02-15T15:04:35;14.50;99.90
25024;DHT22;13033;50.936;5.334;2023-02-15T15:09:39;14.40;99.90
25024;DHT22;13033;50.936;5.334;2023-02-15T15:14:47;14.30;99.90
25024;DHT22;13033;50.936;5.334;2023-02-15T15:20:00;14.40;99.90
25024;DHT22;13033;50.936;5.334;2023-02-15T15:22:27;14.30;99.90
25024;DHT22;13033;50.936;5.334;2023-02-15T15:27:37;14.30;99.90
25024;DHT22;13033;50.936;5.334;2023-02-15T15:33:04;14.60;99.90
25024;DHT22;13033;50.936;5.334;2023-02-15T15:44:19;14.40;99.90
25024;DHT22;13033;50.936;5.334;2023-02-15T15:49:28;14.20;99.90
25024;DHT22;13033;50.936;5.334;2023-02-15T15:52:07;14.20;99.90
25024;DHT22;13033;50.936;5.334;2023-02-15T15:54:34;14.00;99.90
25024;DHT22;13033;50.936;5.334;2023-02-15T15:57:04;14.20;99.90
25024;DHT22;13033;50.936;5.334;2023-02-15T15:59:32;14.00;99.90
25024;DHT22;13033;50.936;5.334;2023-02-15T16:02:06;14.00;99.90
25024;DHT22;13033;50.936;5.334;2023-02-15T16:04:34;13.80;99.90
25024;DHT22;13033;50.936;5.334;2023-02-15T16:12:25;13.80;99.90
25024;DHT22;13033;50.936;5.334;2023-02-15T16:14:52;13.40;99.90
25024;DHT22;13033;50.936;5.334;2023-02-15T16:17:25;13.20;99.90
25024;DHT22;13033;50.936;5.334;2023-02-15T16:19:54;13.20;99.90
25024;DHT22;13033;50.936;5.334;2023-02-15T16:22:24;13.20;99.90
25024;DHT22;13033;50.936;5.334;2023-02-15T16:27:44;12.80;99.90
25024;DHT22;13033;50.936;5.334;2023-02-15T16:32:53;12.80;99.90
25024;DHT22;13033;50.936;5.334;2023-02-15T16:35:21;12.80;99.90
25024;DHT22;13033;50.936;5.334;2023-02-15T16:37:47;12.80;99.90
25024;DHT22;13033;50.936;5.334;2023-02-15T16:42:57;12.70;99.90
25024;DHT22;13033;50.936;5.334;2023-02-15T16:45:26;12.50;99.90
25024;DHT22;13033;50.936;5.334;2023-02-15T16:47:56;12.60;99.90
25024;DHT22;13033;50.936;5.334;2023-02-15T16:50:33;12.60;99.90
25024;DHT22;13033;50.936;5.334;2023-02-15T16:53:00;12.40;99.90
25024;DHT22;13033;50.936;5.334;2023-02-15T16:55:29;12.40;99.90
25024;DHT22;13033;50.936;5.334;2023-02-15T16:58:00;12.40;99.90
25024;DHT22;13033;50.936;5.334;2023-02-15T17:00:30;12.30;99.90
25024;DHT22;13033;50.936;5.334;2023-02-15T17:03:21;11.90;99.90
25024;DHT22;13033;50.936;5.334;2023-02-15T17:05:49;11.70;99.90
25024;DHT22;13033;50.936;5.334;2023-02-15T17:13:39;11.80;99.90
25024;DHT22;13033;50.936;5.334;2023-02-15T17:16:50;11.70;99.90
25024;DHT22;13033;50.936;5.334;2023-02-15T17:19:23;11.50;99.90
25024;DHT22;13033;50.936;5.334;2023-02-15T17:24:45;11.60;99.90
25024;DHT22;13033;50.936;5.334;2023-02-15T17:27:31;11.50;99.90
25024;DHT22;13033;50.936;5.334;2023-02-15T17:30:03;11.30;99.90
25024;DHT22;13033;50.936;5.334;2023-02-15T17:32:31;11.30;99.90
25024;DHT22;13033;50.936;5.334;2023-02-15T17:35:16;11.20;99.90
25024;DHT22;13033;50.936;5.334;2023-02-15T17:37:49;11.00;99.90
25024;DHT22;13033;50.936;5.334;2023-02-15T17:40:27;10.90;99.90
25024;DHT22;13033;50.936;5.334;2023-02-15T17:42:53;11.00;99.90
25024;DHT22;13033;50.936;5.334;2023-02-15T17:45:21;10.90;99.90
25024;DHT22;13033;50.936;5.334;2023-02-15T17:47:48;10.90;99.90
25024;DHT22;13033;50.936;5.334;2023-02-15T17:50:25;10.90;99.90
25024;DHT22;13033;50.936;5.334;2023-02-15T17:52:53;10.90;99.90
25024;DHT22;13033;50.936;5.334;2023-02-15T17:55:21;10.80;99.90
25024;DHT22;13033;50.936;5.334;2023-02-15T17:58:14;10.70;99.90
25024;DHT22;13033;50.936;5.334;2023-02-15T18:00:44;10.60;99.90
25024;DHT22;13033;50.936;5.334;2023-02-15T18:06:20;10.40;99.90
25024;DHT22;13033;50.936;5.334;2023-02-15T18:09:05;10.40;99.90
25024;DHT22;13033;50.936;5.334;2023-02-15T18:11:50;10.40;99.90
25024;DHT22;13033;50.936;5.334;2023-02-15T18:14:16;10.40;99.90
25024;DHT22;13033;50.936;5.334;2023-02-15T18:16:42;10.30;99.90
25024;DHT22;13033;50.936;5.334;2023-02-15T18:19:17;10.20;99.90
25024;DHT22;13033;50.936;5.334;2023-02-15T18:21:45;10.30;99.90
25024;DHT22;13033;50.936;5.334;2023-02-15T18:24:19;10.40;99.90
25024;DHT22;13033;50.936;5.334;2023-02-15T18:26:46;10.50;99.90
25024;DHT22;13033;50.936;5.334;2023-02-15T18:29:21;10.40;99.90
25024;DHT22;13033;50.936;5.334;2023-02-15T18:31:51;10.30;99.90
25024;DHT22;13033;50.936;5.334;2023-02-15T18:34:38;10.30;99.90
25024;DHT22;13033;50.936;5.334;2023-02-15T18:37:11;10.40;99.90
25024;DHT22;13033;50.936;5.334;2023-02-15T18:39:49;10.30;99.90
25024;DHT22;13033;50.936;5.334;2023-02-15T18:42:32;10.20;99.90
25024;DHT22;13033;50.936;5.334;2023-02-15T18:45:26;10.20;99.90
25024;DHT22;13033;50.936;5.334;2023-02-15T18:47:56;10.10;99.90
25024;DHT22;13033;50.936;5.334;2023-02-15T18:50:23;10.10;99.90
25024;DHT22;13033;50.936;5.334;2023-02-15T18:52:51;10.00;99.90
25024;DHT22;13033;50.936;5.334;2023-02-15T18:55:27;10.00;99.90
25024;DHT22;13033;50.936;5.334;2023-02-15T18:57:55;10.00;99.90
25024;DHT22;13033;50.936;5.334;2023-02-15T19:00:26;10.00;99.90
25024;DHT22;13033;50.936;5.334;2023-02-15T19:02:55;9.90;99.90
25024;DHT22;13033;50.936;5.334;2023-02-15T19:05:22;9.90;99.90
25024;DHT22;13033;50.936;5.334;2023-02-15T19:07:49;9.80;99.90